sensor_id;sensor_type;location;lat;lon;timestamp;pressure;altitude;pressure_sealevel;temperature;humidity
10075;BME280;5076;42.680;23.288;2023-02-04T00:02:23;94712.53;;;2.18;100.00
10075;BME280;5076;42.680;23.288;2023-02-04T00:04:50;94709.34;;;2.16;100.00
10075;BME280;5076;42.680;23.288;2023-02-04T00:07:17;94695.75;;;2.07;100.00
10075;BME280;5076;42.680;23.288;2023-02-04T00:09:44;94703.44;;;1.89;100.00
10075;BME280;5076;42.680;23.288;2023-02-04T00:12:14;94704.19;;;2.02;100.00
10075;BME280;5076;42.680;23.288;2023-02-04T00:14:42;94681.00;;;1.94;100.00
10075;BME280;5076;42.680;23.288;2023-02-04T00:17:10;94685.59;;;1.92;100.00
10075;BME280;5076;42.680;23.288;2023-02-04T00:19:38;94690.03;;;1.85;100.00
10075;BME280;5076;42.680;23.288;2023-02-04T00:22:05;94691.47;;;1.81;100.00
10075;BME280;5076;42.680;23.288;2023-02-04T00:24:32;94681.09;;;1.68;100.00
10075;BME280;5076;42.680;23.288;2023-02-04T00:26:59;94692.13;;;1.57;100.00
10075;BME280;5076;42.680;23.288;2023-02-04T00:29:26;94683.91;;;1.53;100.00
10075;BME280;5076;42.680;23.288;2023-02-04T00:31:53;94683.75;;;1.48;100.00
10075;BME280;5076;42.680;23.288;2023-02-04T00:34:24;94675.13;;;1.48;100.00
10075;BME280;5076;42.680;23.288;2023-02-04T00:36:51;94685.56;;;1.48;100.00
10075;BME280;5076;42.680;23.288;2023-02-04T00:39:18;94655.94;;;1.35;100.00
10075;BME280;5076;42.680;23.288;2023-02-04T00:41:45;94678.38;;;1.36;100.00
10075;BME280;5076;42.680;23.288;2023-02-04T00:44:11;94675.75;;;1.43;100.00
10075;BME280;5076;42.680;23.288;2023-02-04T00:46:39;94666.31;;;1.42;100.00
10075;BME280;5076;42.680;23.288;2023-02-04T00:49:06;94665.09;;;1.58;100.00
10075;BME280;5076;42.680;23.288;2023-02-04T00:51:39;94649.06;;;1.61;100.00
10075;BME280;5076;42.680;23.288;2023-02-04T00:54:11;94676.50;;;1.57;100.00
10075;BME280;5076;42.680;23.288;2023-02-04T00:56:40;94655.50;;;1.52;100.00
10075;BME280;5076;42.680;23.288;2023-02-04T00:59:07;94636.84;;;1.61;100.00
10075;BME280;5076;42.680;23.288;2023-02-04T01:01:34;94632.63;;;2.05;100.00
10075;BME280;5076;42.680;23.288;2023-02-04T01:04:01;94644.97;;;2.47;100.00
10075;BME280;5076;42.680;23.288;2023-02-04T01:06:28;94629.44;;;2.34;100.00
10075;BME280;5076;42.680;23.288;2023-02-04T01:08:56;94629.97;;;2.11;100.00
10075;BME280;5076;42.680;23.288;2023-02-04T01:11:23;94619.03;;;1.96;100.00
10075;BME280;5076;42.680;23.288;2023-02-04T01:13:50;94606.03;;;1.90;100.00
10075;BME280;5076;42.680;23.288;2023-02-04T01:16:17;94632.97;;;1.70;100.00
10075;BME280;5076;42.680;23.288;2023-02-04T01:18:44;94631.03;;;1.59;100.00
10075;BME280;5076;42.680;23.288;2023-02-04T01:21:11;94628.78;;;1.69;100.00
10075;BME280;5076;42.680;23.288;2023-02-04T01:23:37;94619.00;;;1.65;100.00
10075;BME280;5076;42.680;23.288;2023-02-04T01:26:06;94602.78;;;1.63;100.00
10075;BME280;5076;42.680;23.288;2023-02-04T01:28:35;94603.78;;;1.62;100.00
10075;BME280;5076;42.680;23.288;2023-02-04T01:31:02;94617.00;;;1.67;100.00
10075;BME280;5076;42.680;23.288;2023-02-04T01:33:28;94594.16;;;1.56;100.00
10075;BME280;5076;42.680;23.288;2023-02-04T01:35:55;94588.44;;;1.40;100.00
10075;BME280;5076;42.680;23.288;2023-02-04T01:38:22;94594.97;;;1.56;100.00
10075;BME280;5076;42.680;23.288;2023-02-04T01:40:49;94580.78;;;1.52;100.00
10075;BME280;5076;42.680;23.288;2023-02-04T01:43:18;94584.75;;;1.61;100.00
10075;BME280;5076;42.680;23.288;2023-02-04T01:45:47;94583.75;;;1.56;100.00
10075;BME280;5076;42.680;23.288;2023-02-04T01:48:18;94584.00;;;1.48;100.00
10075;BME280;5076;42.680;23.288;2023-02-04T01:50:46;94575.75;;;1.57;100.00
10075;BME280;5076;42.680;23.288;2023-02-04T01:53:15;94573.19;;;1.51;100.00
10075;BME280;5076;42.680;23.288;2023-02-04T01:55:44;94569.72;;;1.57;100.00
10075;BME280;5076;42.680;23.288;2023-02-04T01:58:11;94564.13;;;1.53;100.00
10075;BME280;5076;42.680;23.288;2023-02-04T02:00:40;94583.97;;;1.54;100.00
10075;BME280;5076;42.680;23.288;2023-02-04T02:03:07;94567.38;;;1.49;100.00
10075;BME280;5076;42.680;23.288;2023-02-04T02:05:39;94558.94;;;1.53;100.00
10075;BME280;5076;42.680;23.288;2023-02-04T02:08:07;94546.75;;;1.47;100.00
10075;BME280;5076;42.680;23.288;2023-02-04T02:10:36;94542.16;;;1.49;100.00
10075;BME280;5076;42.680;23.288;2023-02-04T02:13:04;94562.13;;;1.55;100.00
10075;BME280;5076;42.680;23.288;2023-02-04T02:15:32;94557.75;;;1.49;100.00
10075;BME280;5076;42.680;23.288;2023-02-04T02:18:00;94545.91;;;1.53;100.00
10075;BME280;5076;42.680;23.288;2023-02-04T02:20:27;94563.59;;;1.45;100.00
10075;BME280;5076;42.680;23.288;2023-02-04T02:23:01;94551.75;;;1.49;100.00
10075;BME280;5076;42.680;23.288;2023-02-04T02:25:31;94556.13;;;1.55;100.00
10075;BME280;5076;42.680;23.288;2023-02-04T02:27:58;94526.31;;;1.51;100.00
10075;BME280;5076;42.680;23.288;2023-02-04T02:30:26;94527.69;;;1.53;100.00
10075;BME280;5076;42.680;23.288;2023-02-04T02:32:54;94504.25;;;1.53;100.00
10075;BME280;5076;42.680;23.288;2023-02-04T02:35:21;94511.69;;;1.50;100.00
10075;BME280;5076;42.680;23.288;2023-02-04T02:37:48;94492.69;;;1.42;100.00
10075;BME280;5076;42.680;23.288;2023-02-04T02:40:16;94498.09;;;1.48;100.00
10075;BME280;5076;42.680;23.288;2023-02-04T02:42:47;94485.88;;;1.41;100.00
10075;BME280;5076;42.680;23.288;2023-02-04T02:45:20;94485.78;;;1.23;100.00
10075;BME280;5076;42.680;23.288;2023-02-04T02:47:47;94483.81;;;1.19;100.00
10075;BME280;5076;42.680;23.288;2023-02-04T02:50:17;94478.97;;;1.22;100.00
10075;BME280;5076;42.680;23.288;2023-02-04T02:52:45;94471.97;;;1.23;100.00
10075;BME280;5076;42.680;23.288;2023-02-04T02:55:14;94461.31;;;1.31;100.00
10075;BME280;5076;42.680;23.288;2023-02-04T02:57:45;94469.31;;;1.36;100.00
10075;BME280;5076;42.680;23.288;2023-02-04T03:00:16;94448.91;;;1.33;100.00
10075;BME280;5076;42.680;23.288;2023-02-04T03:02:44;94457.03;;;1.50;100.00
10075;BME280;5076;42.680;23.288;2023-02-04T03:05:15;94477.44;;;1.53;100.00
10075;BME280;5076;42.680;23.288;2023-02-04T03:07:42;94455.63;;;1.47;100.00
10075;BME280;5076;42.680;23.288;2023-02-04T03:10:09;94473.44;;;1.50;100.00
10075;BME280;5076;42.680;23.288;2023-02-04T03:12:36;94460.44;;;1.44;100.00
10075;BME280;5076;42.680;23.288;2023-02-04T03:15:06;94469.63;;;1.53;100.00
10075;BME280;5076;42.680;23.288;2023-02-04T03:17:33;94478.78;;;1.55;100.00
10075;BME280;5076;42.680;23.288;2023-02-04T03:20:00;94473.78;;;1.54;100.00
10075;BME280;5076;42.680;23.288;2023-02-04T03:22:28;94484.00;;;1.55;100.00
10075;BME280;5076;42.680;23.288;2023-02-04T03:24:54;94459.78;;;1.55;100.00
10075;BME280;5076;42.680;23.288;2023-02-04T03:27:22;94460.53;;;1.62;100.00
10075;BME280;5076;42.680;23.288;2023-02-04T03:29:49;94469.56;;;1.59;100.00
10075;BME280;5076;42.680;23.288;2023-02-04T03:32:18;94471.97;;;1.61;100.00
10075;BME280;5076;42.680;23.288;2023-02-04T03:34:44;94466.75;;;1.61;100.00
10075;BME280;5076;42.680;23.288;2023-02-04T03:37:11;94477.69;;;1.69;100.00
10075;BME280;5076;42.680;23.288;2023-02-04T03:39:38;94473.28;;;1.70;100.00
10075;BME280;5076;42.680;23.288;2023-02-04T03:42:05;94460.72;;;1.67;100.00
10075;BME280;5076;42.680;23.288;2023-02-04T03:44:32;94454.53;;;1.61;100.00
10075;BME280;5076;42.680;23.288;2023-02-04T03:46:59;94458.25;;;1.72;100.00
10075;BME280;5076;42.680;23.288;2023-02-04T03:49:27;94451.13;;;1.61;100.00
10075;BME280;5076;42.680;23.288;2023-02-04T03:51:54;94447.44;;;1.68;100.00
10075;BME280;5076;42.680;23.288;2023-02-04T03:54:21;94440.81;;;1.72;100.00
10075;BME280;5076;42.680;23.288;2023-02-04T03:56:47;94435.78;;;1.77;100.00
10075;BME280;5076;42.680;23.288;2023-02-04T03:59:14;94431.53;;;1.83;100.00
10075;BME280;5076;42.680;23.288;2023-02-04T04:01:41;94420.25;;;1.89;100.00
10075;BME280;5076;42.680;23.288;2023-02-04T04:04:08;94416.84;;;1.89;100.00
10075;BME280;5076;42.680;23.288;2023-02-04T04:06:36;94404.78;;;1.94;100.00
10075;BME280;5076;42.680;23.288;2023-02-04T04:09:03;94406.31;;;2.02;100.00
10075;BME280;5076;42.680;23.288;2023-02-04T04:11:30;94389.88;;;2.01;100.00
10075;BME280;5076;42.680;23.288;2023-02-04T04:13:57;94395.53;;;1.98;100.00
10075;BME280;5076;42.680;23.288;2023-02-04T04:16:24;94391.91;;;1.99;100.00
10075;BME280;5076;42.680;23.288;2023-02-04T04:18:50;94383.94;;;1.94;100.00
10075;BME280;5076;42.680;23.288;2023-02-04T04:21:17;94386.88;;;2.23;100.00
10075;BME280;5076;42.680;23.288;2023-02-04T04:23:45;94380.63;;;2.60;100.00
10075;BME280;5076;42.680;23.288;2023-02-04T04:26:12;94379.63;;;2.61;100.00
10075;BME280;5076;42.680;23.288;2023-02-04T04:28:39;94396.97;;;2.56;100.00
10075;BME280;5076;42.680;23.288;2023-02-04T04:31:06;94398.22;;;2.83;100.00
10075;BME280;5076;42.680;23.288;2023-02-04T04:33:33;94379.63;;;3.09;100.00
10075;BME280;5076;42.680;23.288;2023-02-04T04:35:59;94392.34;;;3.47;100.00
10075;BME280;5076;42.680;23.288;2023-02-04T04:38:26;94412.63;;;3.64;100.00
10075;BME280;5076;42.680;23.288;2023-02-04T04:40:54;94403.19;;;3.63;100.00
10075;BME280;5076;42.680;23.288;2023-02-04T04:43:21;94399.31;;;3.65;100.00
10075;BME280;5076;42.680;23.288;2023-02-04T04:45:53;94402.16;;;3.75;100.00
10075;BME280;5076;42.680;23.288;2023-02-04T04:48:20;94427.50;;;3.75;100.00
10075;BME280;5076;42.680;23.288;2023-02-04T04:50:48;94410.94;;;3.81;100.00
10075;BME280;5076;42.680;23.288;2023-02-04T04:53:15;94405.72;;;3.81;100.00
10075;BME280;5076;42.680;23.288;2023-02-04T04:55:42;94418.22;;;3.79;100.00
10075;BME280;5076;42.680;23.288;2023-02-04T04:58:11;94421.94;;;3.71;100.00
10075;BME280;5076;42.680;23.288;2023-02-04T05:00:38;94422.41;;;3.80;100.00
10075;BME280;5076;42.680;23.288;2023-02-04T05:03:05;94418.22;;;3.79;100.00
10075;BME280;5076;42.680;23.288;2023-02-04T05:05:32;94424.75;;;3.70;100.00
10075;BME280;5076;42.680;23.288;2023-02-04T05:08:04;94409.78;;;3.65;100.00
10075;BME280;5076;42.680;23.288;2023-02-04T05:10:32;94422.13;;;3.58;100.00
10075;BME280;5076;42.680;23.288;2023-02-04T05:12:58;94426.97;;;3.43;100.00
10075;BME280;5076;42.680;23.288;2023-02-04T05:15:27;94432.97;;;3.32;100.00
10075;BME280;5076;42.680;23.288;2023-02-04T05:17:54;94428.75;;;3.31;100.00
10075;BME280;5076;42.680;23.288;2023-02-04T05:20:20;94438.84;;;3.27;100.00
10075;BME280;5076;42.680;23.288;2023-02-04T05:22:47;94446.41;;;3.17;100.00
10075;BME280;5076;42.680;23.288;2023-02-04T05:25:14;94441.63;;;3.14;100.00
10075;BME280;5076;42.680;23.288;2023-02-04T05:27:42;94459.69;;;3.15;100.00
10075;BME280;5076;42.680;23.288;2023-02-04T05:30:10;94456.13;;;3.10;100.00
10075;BME280;5076;42.680;23.288;2023-02-04T05:32:39;94481.84;;;3.06;100.00
10075;BME280;5076;42.680;23.288;2023-02-04T05:35:06;94494.56;;;3.03;100.00
10075;BME280;5076;42.680;23.288;2023-02-04T05:37:33;94496.72;;;3.06;100.00
10075;BME280;5076;42.680;23.288;2023-02-04T05:40:00;94491.88;;;2.91;100.00
10075;BME280;5076;42.680;23.288;2023-02-04T05:42:26;94476.94;;;2.80;100.00
10075;BME280;5076;42.680;23.288;2023-02-04T05:44:53;94492.53;;;2.87;100.00
10075;BME280;5076;42.680;23.288;2023-02-04T05:47:20;94485.50;;;2.87;100.00
10075;BME280;5076;42.680;23.288;2023-02-04T05:49:48;94498.19;;;2.83;100.00
10075;BME280;5076;42.680;23.288;2023-02-04T05:52:15;94499.56;;;2.68;100.00
10075;BME280;5076;42.680;23.288;2023-02-04T05:54:42;94493.53;;;2.67;100.00
10075;BME280;5076;42.680;23.288;2023-02-04T05:57:09;94478.91;;;2.66;100.00
10075;BME280;5076;42.680;23.288;2023-02-04T05:59:36;94471.06;;;2.66;100.00
10075;BME280;5076;42.680;23.288;2023-02-04T06:02:03;94460.63;;;2.66;100.00
10075;BME280;5076;42.680;23.288;2023-02-04T06:04:29;94435.56;;;2.65;100.00
10075;BME280;5076;42.680;23.288;2023-02-04T06:06:58;94450.84;;;2.62;100.00
10075;BME280;5076;42.680;23.288;2023-02-04T06:09:25;94453.25;;;2.63;100.00
10075;BME280;5076;42.680;23.288;2023-02-04T06:11:52;94463.09;;;2.61;100.00
10075;BME280;5076;42.680;23.288;2023-02-04T06:14:18;94469.00;;;2.75;100.00
10075;BME280;5076;42.680;23.288;2023-02-04T06:16:45;94471.28;;;2.83;100.00
10075;BME280;5076;42.680;23.288;2023-02-04T06:19:12;94466.28;;;2.81;100.00
10075;BME280;5076;42.680;23.288;2023-02-04T06:21:39;94498.84;;;2.97;100.00
10075;BME280;5076;42.680;23.288;2023-02-04T06:24:07;94493.56;;;3.04;100.00
10075;BME280;5076;42.680;23.288;2023-02-04T06:26:34;94479.19;;;3.13;100.00
10075;BME280;5076;42.680;23.288;2023-02-04T06:29:01;94478.44;;;3.24;100.00
10075;BME280;5076;42.680;23.288;2023-02-04T06:31:28;94479.59;;;3.28;100.00
10075;BME280;5076;42.680;23.288;2023-02-04T06:33:55;94478.22;;;3.26;100.00
10075;BME280;5076;42.680;23.288;2023-02-04T06:36:22;94503.81;;;3.35;100.00
10075;BME280;5076;42.680;23.288;2023-02-04T06:38:49;94494.81;;;3.49;100.00
10075;BME280;5076;42.680;23.288;2023-02-04T06:41:17;94484.00;;;3.46;100.00
10075;BME280;5076;42.680;23.288;2023-02-04T06:43:44;94488.41;;;3.45;100.00
10075;BME280;5076;42.680;23.288;2023-02-04T06:46:11;94506.31;;;3.60;100.00
10075;BME280;5076;42.680;23.288;2023-02-04T06:48:38;94476.00;;;3.71;100.00
10075;BME280;5076;42.680;23.288;2023-02-04T06:51:09;94486.25;;;3.84;100.00
10075;BME280;5076;42.680;23.288;2023-02-04T06:56:59;94498.97;;;4.10;100.00
10075;BME280;5076;42.680;23.288;2023-02-04T06:59:31;94488.63;;;4.27;100.00
10075;BME280;5076;42.680;23.288;2023-02-04T07:01:58;94478.94;;;4.04;100.00
10075;BME280;5076;42.680;23.288;2023-02-04T07:04:25;94477.56;;;4.02;100.00
10075;BME280;5076;42.680;23.288;2023-02-04T07:06:52;94471.09;;;4.16;100.00
10075;BME280;5076;42.680;23.288;2023-02-04T07:09:19;94472.91;;;4.04;100.00
10075;BME280;5076;42.680;23.288;2023-02-04T07:11:46;94477.69;;;4.07;100.00
10075;BME280;5076;42.680;23.288;2023-02-04T07:14:14;94476.91;;;4.30;100.00
10075;BME280;5076;42.680;23.288;2023-02-04T07:16:43;94476.81;;;4.48;100.00
10075;BME280;5076;42.680;23.288;2023-02-04T07:19:10;94471.66;;;4.30;100.00
10075;BME280;5076;42.680;23.288;2023-02-04T07:21:36;94468.69;;;4.14;100.00
10075;BME280;5076;42.680;23.288;2023-02-04T07:24:04;94456.56;;;4.32;100.00
10075;BME280;5076;42.680;23.288;2023-02-04T07:26:30;94460.88;;;4.38;100.00
10075;BME280;5076;42.680;23.288;2023-02-04T07:28:58;94463.16;;;4.46;100.00
10075;BME280;5076;42.680;23.288;2023-02-04T07:31:27;94449.41;;;4.39;100.00
10075;BME280;5076;42.680;23.288;2023-02-04T07:33:54;94442.78;;;4.48;100.00
10075;BME280;5076;42.680;23.288;2023-02-04T07:36:21;94441.78;;;4.49;100.00
10075;BME280;5076;42.680;23.288;2023-02-04T07:38:47;94446.88;;;4.67;100.00
10075;BME280;5076;42.680;23.288;2023-02-04T07:41:14;94460.16;;;5.01;100.00
10075;BME280;5076;42.680;23.288;2023-02-04T07:43:41;94446.25;;;5.00;100.00
10075;BME280;5076;42.680;23.288;2023-02-04T07:46:08;94446.22;;;5.12;100.00
10075;BME280;5076;42.680;23.288;2023-02-04T07:48:37;94437.41;;;5.29;100.00
10075;BME280;5076;42.680;23.288;2023-02-04T07:51:04;94448.56;;;5.25;100.00
10075;BME280;5076;42.680;23.288;2023-02-04T07:53:31;94438.69;;;5.15;100.00
10075;BME280;5076;42.680;23.288;2023-02-04T07:55:58;94441.16;;;5.34;100.00
10075;BME280;5076;42.680;23.288;2023-02-04T07:58:25;94450.06;;;5.21;100.00
10075;BME280;5076;42.680;23.288;2023-02-04T08:00:52;94436.56;;;5.01;100.00
10075;BME280;5076;42.680;23.288;2023-02-04T08:03:18;94434.56;;;4.79;100.00
10075;BME280;5076;42.680;23.288;2023-02-04T08:05:46;94440.50;;;4.63;100.00
10075;BME280;5076;42.680;23.288;2023-02-04T08:08:13;94453.94;;;4.67;100.00
10075;BME280;5076;42.680;23.288;2023-02-04T08:10:41;94445.97;;;4.62;100.00
10075;BME280;5076;42.680;23.288;2023-02-04T08:13:07;94448.59;;;4.62;100.00
10075;BME280;5076;42.680;23.288;2023-02-04T08:15:34;94471.25;;;4.56;100.00
10075;BME280;5076;42.680;23.288;2023-02-04T08:18:01;94459.28;;;4.72;100.00
10075;BME280;5076;42.680;23.288;2023-02-04T08:20:28;94457.13;;;4.57;100.00
10075;BME280;5076;42.680;23.288;2023-02-04T08:22:57;94450.28;;;4.44;100.00
10075;BME280;5076;42.680;23.288;2023-02-04T08:25:24;94461.31;;;4.46;100.00
10075;BME280;5076;42.680;23.288;2023-02-04T08:27:51;94447.94;;;4.43;100.00
10075;BME280;5076;42.680;23.288;2023-02-04T08:30:18;94451.22;;;4.27;100.00
10075;BME280;5076;42.680;23.288;2023-02-04T08:32:45;94448.69;;;4.43;100.00
10075;BME280;5076;42.680;23.288;2023-02-04T08:35:12;94446.22;;;4.37;100.00
10075;BME280;5076;42.680;23.288;2023-02-04T08:37:39;94439.28;;;4.54;100.00
10075;BME280;5076;42.680;23.288;2023-02-04T08:40:08;94443.47;;;4.67;100.00
10075;BME280;5076;42.680;23.288;2023-02-04T08:42:35;94452.13;;;4.44;100.00
10075;BME280;5076;42.680;23.288;2023-02-04T08:45:02;94438.81;;;4.34;100.00
10075;BME280;5076;42.680;23.288;2023-02-04T08:47:29;94433.81;;;4.32;100.00
10075;BME280;5076;42.680;23.288;2023-02-04T08:49:56;94427.78;;;4.08;100.00
10075;BME280;5076;42.680;23.288;2023-02-04T08:52:23;94437.09;;;4.04;100.00
10075;BME280;5076;42.680;23.288;2023-02-04T08:54:50;94425.88;;;4.27;100.00
10075;BME280;5076;42.680;23.288;2023-02-04T08:57:18;94428.34;;;4.22;100.00
10075;BME280;5076;42.680;23.288;2023-02-04T08:59:45;94438.69;;;4.17;100.00
10075;BME280;5076;42.680;23.288;2023-02-04T09:02:12;94429.47;;;4.03;100.00
10075;BME280;5076;42.680;23.288;2023-02-04T09:04:39;94434.16;;;4.12;100.00
10075;BME280;5076;42.680;23.288;2023-02-04T09:07:05;94421.31;;;4.11;100.00
10075;BME280;5076;42.680;23.288;2023-02-04T09:09:32;94419.16;;;3.96;100.00
10075;BME280;5076;42.680;23.288;2023-02-04T09:11:59;94416.75;;;4.06;100.00
10075;BME280;5076;42.680;23.288;2023-02-04T09:14:28;94403.56;;;4.13;100.00
10075;BME280;5076;42.680;23.288;2023-02-04T09:17:14;94409.13;;;4.16;100.00
10075;BME280;5076;42.680;23.288;2023-02-04T09:19:40;94408.59;;;4.26;100.00
10075;BME280;5076;42.680;23.288;2023-02-04T09:22:07;94418.34;;;4.31;100.00
10075;BME280;5076;42.680;23.288;2023-02-04T09:24:34;94407.53;;;4.39;100.00
10075;BME280;5076;42.680;23.288;2023-02-04T09:27:01;94428.91;;;4.59;100.00
10075;BME280;5076;42.680;23.288;2023-02-04T09:29:29;94428.47;;;4.50;100.00
10075;BME280;5076;42.680;23.288;2023-02-04T09:31:57;94416.28;;;4.33;100.00
10075;BME280;5076;42.680;23.288;2023-02-04T09:34:23;94421.19;;;4.41;100.00
10075;BME280;5076;42.680;23.288;2023-02-04T09:36:50;94420.38;;;4.52;100.00
10075;BME280;5076;42.680;23.288;2023-02-04T09:39:17;94417.78;;;4.52;100.00
10075;BME280;5076;42.680;23.288;2023-02-04T09:41:44;94426.41;;;4.52;100.00
10075;BME280;5076;42.680;23.288;2023-02-04T09:44:14;94422.56;;;4.32;100.00
10075;BME280;5076;42.680;23.288;2023-02-04T09:46:46;94423.91;;;4.46;100.00
10075;BME280;5076;42.680;23.288;2023-02-04T09:49:14;94403.09;;;4.51;100.00
10075;BME280;5076;42.680;23.288;2023-02-04T09:51:42;94413.69;;;4.56;100.00
10075;BME280;5076;42.680;23.288;2023-02-04T09:54:12;94410.16;;;4.39;100.00
10075;BME280;5076;42.680;23.288;2023-02-04T09:56:39;94411.66;;;4.11;100.00
10075;BME280;5076;42.680;23.288;2023-02-04T09:59:10;94394.00;;;4.30;100.00
10075;BME280;5076;42.680;23.288;2023-02-04T10:01:37;94393.44;;;4.16;100.00
10075;BME280;5076;42.680;23.288;2023-02-04T10:04:09;94384.72;;;4.11;100.00
10075;BME280;5076;42.680;23.288;2023-02-04T10:06:37;94391.84;;;4.15;100.00
10075;BME280;5076;42.680;23.288;2023-02-04T10:09:05;94383.66;;;4.00;100.00
10075;BME280;5076;42.680;23.288;2023-02-04T10:11:35;94392.66;;;4.16;100.00
10075;BME280;5076;42.680;23.288;2023-02-04T10:14:03;94362.41;;;4.08;100.00
10075;BME280;5076;42.680;23.288;2023-02-04T10:16:32;94380.16;;;4.18;100.00
10075;BME280;5076;42.680;23.288;2023-02-04T10:19:04;94382.19;;;4.28;100.00
10075;BME280;5076;42.680;23.288;2023-02-04T10:21:35;94389.56;;;4.31;100.00
10075;BME280;5076;42.680;23.288;2023-02-04T10:24:05;94371.38;;;4.36;100.00
10075;BME280;5076;42.680;23.288;2023-02-04T10:26:35;94368.53;;;4.37;100.00
10075;BME280;5076;42.680;23.288;2023-02-04T10:29:04;94375.00;;;4.35;100.00
10075;BME280;5076;42.680;23.288;2023-02-04T10:31:33;94390.81;;;4.40;100.00
10075;BME280;5076;42.680;23.288;2023-02-04T10:34:06;94377.75;;;4.40;100.00
10075;BME280;5076;42.680;23.288;2023-02-04T10:36:41;94378.09;;;4.20;100.00
10075;BME280;5076;42.680;23.288;2023-02-04T10:39:13;94371.72;;;4.16;100.00
10075;BME280;5076;42.680;23.288;2023-02-04T10:41:46;94364.25;;;4.08;100.00
10075;BME280;5076;42.680;23.288;2023-02-04T10:44:15;94367.97;;;4.00;100.00
10075;BME280;5076;42.680;23.288;2023-02-04T10:46:42;94359.66;;;4.15;100.00
10075;BME280;5076;42.680;23.288;2023-02-04T10:49:18;94370.72;;;4.05;100.00
10075;BME280;5076;42.680;23.288;2023-02-04T10:51:47;94354.09;;;4.00;100.00
10075;BME280;5076;42.680;23.288;2023-02-04T10:54:15;94354.69;;;4.02;100.00
10075;BME280;5076;42.680;23.288;2023-02-04T10:57:06;94358.44;;;4.17;100.00
10075;BME280;5076;42.680;23.288;2023-02-04T10:59:35;94351.38;;;4.06;100.00
10075;BME280;5076;42.680;23.288;2023-02-04T11:02:23;94347.97;;;4.06;100.00
10075;BME280;5076;42.680;23.288;2023-02-04T11:04:53;94332.72;;;4.14;100.00
10075;BME280;5076;42.680;23.288;2023-02-04T11:07:22;94330.81;;;4.10;100.00
10075;BME280;5076;42.680;23.288;2023-02-04T11:09:49;94350.38;;;4.07;100.00
10075;BME280;5076;42.680;23.288;2023-02-04T11:12:21;94326.38;;;4.10;100.00
10075;BME280;5076;42.680;23.288;2023-02-04T11:14:54;94326.25;;;4.17;100.00
10075;BME280;5076;42.680;23.288;2023-02-04T11:17:28;94317.63;;;4.05;100.00
10075;BME280;5076;42.680;23.288;2023-02-04T11:19:56;94326.78;;;4.31;100.00
10075;BME280;5076;42.680;23.288;2023-02-04T11:22:42;94326.91;;;4.36;100.00
10075;BME280;5076;42.680;23.288;2023-02-04T11:25:32;94328.13;;;4.56;100.00
10075;BME280;5076;42.680;23.288;2023-02-04T11:28:12;94329.16;;;4.55;100.00
10075;BME280;5076;42.680;23.288;2023-02-04T11:30:40;94320.34;;;4.62;100.00
10075;BME280;5076;42.680;23.288;2023-02-04T11:33:21;94328.59;;;4.53;100.00
10075;BME280;5076;42.680;23.288;2023-02-04T11:36:10;94321.59;;;4.59;100.00
10075;BME280;5076;42.680;23.288;2023-02-04T11:38:42;94330.38;;;4.65;100.00
10075;BME280;5076;42.680;23.288;2023-02-04T11:41:23;94324.84;;;4.49;100.00
10075;BME280;5076;42.680;23.288;2023-02-04T11:43:52;94321.69;;;4.36;100.00
10075;BME280;5076;42.680;23.288;2023-02-04T11:46:20;94328.94;;;4.45;100.00
10075;BME280;5076;42.680;23.288;2023-02-04T11:48:51;94336.34;;;4.88;100.00
10075;BME280;5076;42.680;23.288;2023-02-04T11:51:20;94331.38;;;5.04;100.00
10075;BME280;5076;42.680;23.288;2023-02-04T11:53:51;94336.34;;;4.77;100.00
10075;BME280;5076;42.680;23.288;2023-02-04T11:56:19;94324.44;;;4.69;100.00
10075;BME280;5076;42.680;23.288;2023-02-04T11:58:47;94323.03;;;4.78;100.00
10075;BME280;5076;42.680;23.288;2023-02-04T12:01:30;94326.88;;;4.87;100.00
10075;BME280;5076;42.680;23.288;2023-02-04T12:04:18;94335.28;;;4.49;100.00
10075;BME280;5076;42.680;23.288;2023-02-04T12:07:02;94321.00;;;4.29;100.00
10075;BME280;5076;42.680;23.288;2023-02-04T12:09:32;94318.72;;;4.32;100.00
10075;BME280;5076;42.680;23.288;2023-02-04T12:12:01;94303.50;;;4.17;100.00
10075;BME280;5076;42.680;23.288;2023-02-04T12:14:30;94319.50;;;4.33;100.00
10075;BME280;5076;42.680;23.288;2023-02-04T12:16:58;94317.22;;;4.48;100.00
10075;BME280;5076;42.680;23.288;2023-02-04T12:19:26;94313.50;;;4.32;100.00
10075;BME280;5076;42.680;23.288;2023-02-04T12:21:53;94328.84;;;4.40;100.00
10075;BME280;5076;42.680;23.288;2023-02-04T12:24:20;94307.34;;;4.38;100.00
10075;BME280;5076;42.680;23.288;2023-02-04T12:26:49;94320.06;;;4.46;100.00
10075;BME280;5076;42.680;23.288;2023-02-04T12:29:16;94308.94;;;4.39;100.00
10075;BME280;5076;42.680;23.288;2023-02-04T12:31:43;94316.97;;;4.49;100.00
10075;BME280;5076;42.680;23.288;2023-02-04T12:34:10;94313.47;;;4.44;100.00
10075;BME280;5076;42.680;23.288;2023-02-04T12:36:37;94303.25;;;4.31;100.00
10075;BME280;5076;42.680;23.288;2023-02-04T12:39:08;94310.28;;;4.53;100.00
10075;BME280;5076;42.680;23.288;2023-02-04T12:41:38;94302.22;;;4.32;100.00
10075;BME280;5076;42.680;23.288;2023-02-04T12:44:07;94314.66;;;4.65;100.00
10075;BME280;5076;42.680;23.288;2023-02-04T12:46:34;94312.50;;;4.62;100.00
10075;BME280;5076;42.680;23.288;2023-02-04T12:49:01;94300.03;;;4.52;100.00
10075;BME280;5076;42.680;23.288;2023-02-04T12:51:28;94294.16;;;4.73;100.00
10075;BME280;5076;42.680;23.288;2023-02-04T12:53:55;94312.88;;;4.53;100.00
10075;BME280;5076;42.680;23.288;2023-02-04T12:56:22;94294.34;;;4.43;100.00
10075;BME280;5076;42.680;23.288;2023-02-04T12:58:49;94311.97;;;4.48;100.00
10075;BME280;5076;42.680;23.288;2023-02-04T13:01:17;94311.41;;;4.46;100.00
10075;BME280;5076;42.680;23.288;2023-02-04T13:03:44;94320.50;;;4.43;100.00
10075;BME280;5076;42.680;23.288;2023-02-04T13:06:11;94321.69;;;4.36;100.00
10075;BME280;5076;42.680;23.288;2023-02-04T13:08:38;94302.03;;;4.21;100.00
10075;BME280;5076;42.680;23.288;2023-02-04T13:11:05;94317.00;;;4.38;100.00